Time;durP1;ratioP1;P1;durP2;ratioP2;P2;SDS_P1;SDS_P2;PMS_P1;PMS_P2;Temp;Humidity;BMP_temperature;BMP_pressure;BME280_temperature;BME280_humidity;BME280_pressure;Samples;Min_cycle;Max_cycle;Signal;HPM_P1;HPM_P2
2023/08/18 00:01:58;;;;;;;2.83;1.43;;;;;;;21.55;100.00;101330.47;5094208;28;20531;-68
2023/08/18 00:04:25;;;;;;;3.70;1.83;;;;;;;21.57;100.00;101325.41;5093817;28;20480;-68
2023/08/18 00:06:51;;;;;;;3.87;2.20;;;;;;;21.55;100.00;101322.19;5094318;28;20541;-68
2023/08/18 00:09:18;;;;;;;3.97;1.63;;;;;;;21.55;100.00;101316.66;5094398;28;20516;-68
2023/08/18 00:11:46;;;;;;;3.47;1.63;;;;;;;21.55;100.00;101313.91;5094002;28;20527;-68
2023/08/18 00:14:13;;;;;;;3.57;1.97;;;;;;;21.55;100.00;101315.88;5093857;28;20470;-68
2023/08/18 00:16:39;;;;;;;5.10;1.70;;;;;;;21.52;100.00;101316.63;5094297;28;20870;-68
2023/08/18 00:19:06;;;;;;;10.20;2.90;;;;;;;21.50;100.00;101307.88;5093862;28;20428;-68
2023/08/18 00:21:33;;;;;;;4.67;2.33;;;;;;;21.48;100.00;101315.72;5093593;28;20858;-68
2023/08/18 00:23:59;;;;;;;3.43;1.67;;;;;;;21.48;100.00;101311.00;5094219;28;20463;-68
2023/08/18 00:26:26;;;;;;;4.70;2.43;;;;;;;21.45;100.00;101311.72;5093530;28;20486;-68
2023/08/18 00:28:54;;;;;;;3.20;1.60;;;;;;;21.44;100.00;101320.34;5093892;28;20932;-68
2023/08/18 00:31:20;;;;;;;10.73;2.20;;;;;;;21.43;100.00;101322.31;5093766;28;20447;-68
2023/08/18 00:33:47;;;;;;;5.27;2.03;;;;;;;21.42;100.00;101317.94;5093668;28;20879;-68
2023/08/18 00:36:14;;;;;;;4.47;2.03;;;;;;;21.44;100.00;101312.09;5093693;28;20488;-68
2023/08/18 00:38:40;;;;;;;5.30;2.27;;;;;;;21.39;100.00;101305.69;5093371;28;20932;-68
2023/08/18 00:41:07;;;;;;;3.37;1.57;;;;;;;21.39;100.00;101297.41;5094028;28;20437;-68
2023/08/18 00:43:34;;;;;;;7.23;2.20;;;;;;;21.37;100.00;101285.13;5093661;28;20497;-68
2023/08/18 00:46:02;;;;;;;4.80;2.00;;;;;;;21.35;100.00;101295.72;5093405;28;20491;-68
2023/08/18 00:48:28;;;;;;;3.00;1.50;;;;;;;21.36;100.00;101287.09;5093583;28;21030;-68
2023/08/18 00:50:56;;;;;;;3.80;2.40;;;;;;;21.35;100.00;101277.22;5093936;28;20519;-68
2023/08/18 00:53:23;;;;;;;4.70;2.07;;;;;;;21.34;100.00;101283.91;5093631;28;20516;-68
2023/08/18 00:55:50;;;;;;;4.37;1.97;;;;;;;21.33;100.00;101282.28;5093121;28;20539;-68
2023/08/18 00:58:17;;;;;;;3.73;1.90;;;;;;;21.35;100.00;101282.75;5093211;28;20476;-68
2023/08/18 01:00:45;;;;;;;3.77;2.20;;;;;;;21.38;100.00;101287.53;5093383;28;20978;-68
2023/08/18 01:03:13;;;;;;;4.60;2.30;;;;;;;21.38;100.00;101289.47;5093822;28;20434;-68
2023/08/18 01:05:40;;;;;;;3.77;2.20;;;;;;;21.37;100.00;101285.13;5093503;28;20480;-68
2023/08/18 01:08:06;;;;;;;5.27;2.70;;;;;;;21.35;100.00;101284.69;5094130;28;20464;-68
2023/08/18 01:10:43;;;;;;;5.20;2.40;;;;;;;21.37;100.00;101288.69;5093400;28;20433;-68
2023/08/18 01:13:15;;;;;;;3.83;2.03;;;;;;;21.32;100.00;101288.97;5093573;28;20503;-68
2023/08/18 01:15:45;;;;;;;5.33;2.53;;;;;;;21.32;100.00;101277.94;5093328;28;20538;-68
2023/08/18 01:18:14;;;;;;;5.80;2.80;;;;;;;21.28;100.00;101279.78;5093349;28;20421;-68
2023/08/18 01:20:41;;;;;;;4.30;2.40;;;;;;;21.30;100.00;101277.47;5093316;28;20472;-68
2023/08/18 01:23:09;;;;;;;5.00;3.00;;;;;;;21.27;100.00;101283.69;5095274;28;20432;-68
2023/08/18 01:25:36;;;;;;;4.83;2.70;;;;;;;21.27;100.00;101277.38;5097408;28;20544;-68
2023/08/18 01:28:03;;;;;;;4.50;2.60;;;;;;;21.26;100.00;101286.81;5096977;28;20436;-68
2023/08/18 01:30:34;;;;;;;3.73;2.40;;;;;;;21.24;100.00;101289.91;5097112;28;20531;-68
2023/08/18 01:33:05;;;;;;;4.10;2.40;;;;;;;21.24;100.00;101289.09;5097481;28;20515;-67
2023/08/18 01:35:32;;;;;;;5.77;3.60;;;;;;;21.24;100.00;101294.63;5097712;28;20510;-67
2023/08/18 01:38:00;;;;;;;5.60;2.97;;;;;;;21.25;100.00;101301.72;5097649;28;20440;-67
2023/08/18 01:40:30;;;;;;;4.63;2.50;;;;;;;21.22;100.00;101307.97;5096739;28;20871;-67
2023/08/18 01:42:58;;;;;;;6.73;2.90;;;;;;;21.20;100.00;101322.06;5097189;28;20589;-67
2023/08/18 01:45:25;;;;;;;5.77;2.87;;;;;;;21.20;100.00;101311.06;5097110;28;20483;-67
2023/08/18 01:47:51;;;;;;;4.50;2.57;;;;;;;21.13;100.00;101317.22;5096820;28;21015;-67
2023/08/18 01:50:19;;;;;;;4.07;2.47;;;;;;;21.07;100.00;101313.13;5096672;28;20475;-67
2023/08/18 01:52:45;;;;;;;4.20;2.60;;;;;;;21.03;100.00;101314.16;5096901;28;20511;-67
2023/08/18 01:55:12;;;;;;;4.10;2.47;;;;;;;20.97;100.00;101312.84;5096448;28;20535;-69
2023/08/18 01:57:40;;;;;;;6.53;2.33;;;;;;;20.96;100.00;101316.75;5096589;28;20954;-68
2023/08/18 02:00:08;;;;;;;4.03;2.10;;;;;;;20.92;100.00;101317.44;5096881;28;20527;-68
2023/08/18 02:02:35;;;;;;;6.10;2.90;;;;;;;20.88;100.00;101319.31;5096529;28;20523;-68
2023/08/18 02:05:02;;;;;;;5.67;2.70;;;;;;;20.89;100.00;101318.16;5096611;28;20460;-68
2023/08/18 02:07:28;;;;;;;5.40;2.80;;;;;;;20.90;100.00;101308.75;5096440;28;20440;-68
2023/08/18 02:09:55;;;;;;;4.90;2.50;;;;;;;20.87;100.00;101308.66;5097133;28;20521;-69
2023/08/18 02:12:24;;;;;;;5.97;3.10;;;;;;;20.85;100.00;101300.75;5096427;28;20444;-68
2023/08/18 02:14:52;;;;;;;6.27;2.60;;;;;;;20.85;100.00;101311.75;5102678;22;20485;-72
2023/08/18 02:17:19;;;;;;;4.63;2.87;;;;;;;20.85;100.00;101311.75;5084768;28;20489;-72
2023/08/18 02:19:45;;;;;;;4.60;2.80;;;;;;;20.81;100.00;101304.56;5083948;28;20471;-69
2023/08/18 02:22:12;;;;;;;5.50;2.80;;;;;;;20.78;100.00;101305.25;5084393;28;20472;-69
2023/08/18 02:24:39;;;;;;;6.57;2.43;;;;;;;20.74;100.00;101296.91;5085570;28;20464;-70
2023/08/18 02:27:05;;;;;;;4.90;2.83;;;;;;;20.73;100.00;101292.56;5083035;28;20567;-70
2023/08/18 02:29:32;;;;;;;3.60;2.23;;;;;;;20.73;100.00;101297.25;5083867;28;20448;-70
2023/08/18 02:32:00;;;;;;;5.03;2.33;;;;;;;20.73;100.00;101294.50;5082703;28;20505;-70
2023/08/18 02:34:27;;;;;;;8.33;3.13;;;;;;;20.72;100.00;101285.44;5081504;28;20473;-70
2023/08/18 02:36:53;;;;;;;5.13;2.30;;;;;;;20.71;100.00;101286.56;5087470;28;20461;-70
2023/08/18 02:39:20;;;;;;;7.20;4.13;;;;;;;20.69;100.00;101291.66;5082833;28;20497;-69
2023/08/18 02:41:47;;;;;;;6.10;3.30;;;;;;;20.66;100.00;101290.38;5082135;28;20445;-69
2023/08/18 02:44:13;;;;;;;6.47;3.13;;;;;;;20.66;100.00;101287.63;5081552;28;20441;-69
2023/08/18 02:46:40;;;;;;;7.10;3.40;;;;;;;20.68;100.00;101295.56;5080757;28;20480;-70
2023/08/18 02:49:08;;;;;;;4.90;2.67;;;;;;;20.69;100.00;101308.16;5081146;28;20520;-70
2023/08/18 02:51:35;;;;;;;5.50;2.87;;;;;;;20.69;100.00;101301.88;5080706;28;20449;-70
2023/08/18 02:54:01;;;;;;;12.00;3.30;;;;;;;20.68;100.00;101297.53;5081452;28;20524;-69
2023/08/18 02:56:28;;;;;;;5.80;2.73;;;;;;;20.69;100.00;101296.38;5081250;28;20541;-70
2023/08/18 02:58:54;;;;;;;5.50;3.33;;;;;;;20.68;100.00;101306.56;5080689;28;20528;-70
2023/08/18 03:01:21;;;;;;;4.27;2.50;;;;;;;20.69;100.00;101310.94;5080362;28;20529;-70
2023/08/18 03:03:47;;;;;;;11.90;2.50;;;;;;;20.66;100.00;101309.66;5082011;28;20433;-71
2023/08/18 03:06:15;;;;;;;6.37;2.70;;;;;;;20.64;100.00;101305.69;5081577;28;20587;-70
2023/08/18 03:08:42;;;;;;;6.43;2.47;;;;;;;20.64;100.00;101302.94;5081580;28;21016;-70
2023/08/18 03:11:09;;;;;;;5.90;2.40;;;;;;;20.65;100.00;101308.06;5081251;28;20528;-70
2023/08/18 03:13:35;;;;;;;5.17;2.43;;;;;;;20.62;100.00;101302.47;5080801;28;20452;-71
2023/08/18 03:16:03;;;;;;;3.97;2.73;;;;;;;20.63;100.00;101306.84;5077922;28;20552;-68
2023/08/18 03:18:29;;;;;;;4.17;2.37;;;;;;;20.61;100.00;101300.88;5074566;28;20495;-69
2023/08/18 03:21:01;;;;;;;4.60;2.40;;;;;;;20.62;100.00;101302.47;5075162;28;20532;-69
2023/08/18 03:23:29;;;;;;;4.40;2.50;;;;;;;20.61;100.00;101306.38;5074836;28;20524;-69
2023/08/18 03:26:03;;;;;;;4.60;2.50;;;;;;;20.61;100.00;101301.66;5074543;28;20531;-69
2023/08/18 03:28:31;;;;;;;4.53;2.20;;;;;;;20.59;100.00;101305.94;5074608;28;20437;-69
2023/08/18 03:31:01;;;;;;;4.27;2.37;;;;;;;20.60;100.00;101304.78;5075021;28;20441;-69
2023/08/18 03:33:28;;;;;;;5.43;2.73;;;;;;;20.62;100.00;101305.22;5074857;28;20518;-69
2023/08/18 03:35:55;;;;;;;4.60;2.70;;;;;;;20.62;100.00;101305.22;5074699;28;20459;-69
2023/08/18 03:38:21;;;;;;;7.00;2.17;;;;;;;20.59;100.00;101303.97;5074482;28;20448;-69
2023/08/18 03:40:49;;;;;;;5.00;3.20;;;;;;;20.59;100.00;101303.19;5074112;28;20453;-69
2023/08/18 03:43:16;;;;;;;3.90;2.27;;;;;;;20.57;100.00;101298.00;5074368;28;20533;-69
2023/08/18 03:45:42;;;;;;;5.50;3.07;;;;;;;20.60;100.00;101299.28;5073809;28;20832;-69
2023/08/18 03:48:09;;;;;;;9.30;3.37;;;;;;;20.63;100.00;101299.38;5074614;28;20524;-69
2023/08/18 03:50:39;;;;;;;6.30;3.00;;;;;;;20.65;100.00;101307.28;5074231;28;20529;-69
2023/08/18 03:53:05;;;;;;;8.83;3.20;;;;;;;20.64;100.00;101309.22;5073870;28;20944;-69
2023/08/18 03:55:32;;;;;;;8.83;3.67;;;;;;;20.65;100.00;101312.78;5074162;28;20461;-69
2023/08/18 03:58:00;;;;;;;5.20;3.20;;;;;;;20.64;100.00;101311.19;5074142;28;20442;-69
2023/08/18 04:00:26;;;;;;;8.73;3.27;;;;;;;20.61;100.00;101307.16;5074034;28;20441;-70
2023/08/18 04:02:53;;;;;;;9.60;3.30;;;;;;;20.60;100.00;101322.09;5073995;28;20463;-69
2023/08/18 04:05:19;;;;;;;5.27;3.10;;;;;;;20.63;100.00;101317.84;5073912;28;20536;-68
2023/08/18 04:07:46;;;;;;;4.53;2.80;;;;;;;20.61;100.00;101317.38;5073960;28;20520;-68
2023/08/18 04:10:13;;;;;;;4.90;2.77;;;;;;;20.62;100.00;101319.78;5074326;28;20463;-68
2023/08/18 04:12:40;;;;;;;5.67;2.93;;;;;;;20.63;100.00;101324.16;5074027;28;20916;-69
2023/08/18 04:15:08;;;;;;;9.03;2.97;;;;;;;20.65;100.00;101330.09;5073415;28;20474;-68
2023/08/18 04:17:35;;;;;;;4.60;2.63;;;;;;;20.66;100.00;101328.94;5074108;28;20437;-69
2023/08/18 04:20:04;;;;;;;4.63;2.63;;;;;;;20.69;100.00;101334.91;5073818;28;20520;-69
2023/08/18 04:22:31;;;;;;;4.93;2.87;;;;;;;20.70;100.00;101331.00;5073793;28;20469;-68
2023/08/18 04:24:57;;;;;;;4.10;2.50;;;;;;;20.74;100.00;101337.41;5073621;28;20461;-68
2023/08/18 04:27:24;;;;;;;5.27;2.77;;;;;;;20.73;100.00;101333.84;5074363;28;20572;-69
2023/08/18 04:29:50;;;;;;;4.47;2.23;;;;;;;20.71;100.00;101333.38;5073931;28;20477;-68
2023/08/18 04:32:18;;;;;;;5.37;3.37;;;;;;;20.75;100.00;101345.31;5073556;28;20461;-68
2023/08/18 04:34:45;;;;;;;4.57;2.50;;;;;;;20.78;100.00;101349.31;5073844;28;20533;-68
2023/08/18 04:37:12;;;;;;;6.50;3.47;;;;;;;20.79;100.00;101346.19;5073601;28;20433;-68
2023/08/18 04:39:38;;;;;;;11.60;3.33;;;;;;;20.81;100.00;101346.66;5073578;28;20444;-68
2023/08/18 04:42:05;;;;;;;4.90;3.23;;;;;;;20.84;100.00;101342.38;5073899;28;20524;-68
2023/08/18 04:44:31;;;;;;;3.83;2.53;;;;;;;20.86;100.00;101346.41;5073678;28;20520;-69
2023/08/18 04:47:01;;;;;;;9.50;4.37;;;;;;;20.88;100.00;101338.59;5073475;28;20489;-69
2023/08/18 04:49:29;;;;;;;15.00;4.20;;;;;;;20.91;100.00;101342.59;5073400;28;20452;-71
2023/08/18 04:51:56;;;;;;;8.10;3.67;;;;;;;20.94;100.00;101338.31;5073138;28;20537;-69
2023/08/18 04:54:22;;;;;;;6.47;3.80;;;;;;;20.95;100.00;101337.19;5073431;28;20451;-69
2023/08/18 04:56:49;;;;;;;6.10;2.87;;;;;;;20.94;100.00;101328.13;5073029;28;20532;-69
2023/08/18 04:59:16;;;;;;;10.47;3.50;;;;;;;20.94;100.00;101336.38;5077107;28;20437;-69
2023/08/18 05:01:42;;;;;;;6.20;3.17;;;;;;;20.91;100.00;101337.88;5077452;28;20523;-68
2023/08/18 05:04:09;;;;;;;7.00;3.37;;;;;;;20.90;100.00;101341.00;5077473;28;20794;-68
2023/08/18 05:06:37;;;;;;;6.90;2.90;;;;;;;20.92;100.00;101345.00;5077266;28;20481;-68
2023/08/18 05:09:05;;;;;;;12.10;3.70;;;;;;;20.92;100.00;101352.44;5077036;28;20445;-68
2023/08/18 05:11:31;;;;;;;7.40;2.47;;;;;;;20.90;100.00;101346.50;5077447;28;20445;-68
2023/08/18 05:13:58;;;;;;;5.40;3.23;;;;;;;20.90;100.00;101339.03;5076908;28;20457;-68
2023/08/18 05:16:24;;;;;;;7.50;3.57;;;;;;;20.90;100.00;101336.28;5077256;28;20453;-68
2023/08/18 05:18:51;;;;;;;5.13;3.07;;;;;;;20.92;100.00;101336.72;5077511;28;20445;-68
2023/08/18 05:21:18;;;;;;;5.50;3.27;;;;;;;20.90;100.00;101341.78;5077602;28;20524;-69
2023/08/18 05:23:46;;;;;;;10.83;3.27;;;;;;;20.93;100.00;101340.28;5077384;28;20540;-69
2023/08/18 05:26:12;;;;;;;4.30;2.80;;;;;;;20.92;100.00;101333.97;5076865;28;20489;-69
2023/08/18 05:28:39;;;;;;;8.07;3.30;;;;;;;20.96;100.00;101341.53;5077017;28;20528;-69
2023/08/18 05:31:07;;;;;;;5.70;3.07;;;;;;;20.99;100.00;101341.63;5076882;28;20438;-69
2023/08/18 05:33:34;;;;;;;5.97;3.00;;;;;;;21.03;100.00;101338.94;5077037;28;20501;-70
2023/08/18 05:36:01;;;;;;;5.53;3.20;;;;;;;21.06;100.00;101343.75;5076737;28;20457;-69
2023/08/18 05:38:27;;;;;;;8.43;3.60;;;;;;;21.09;100.00;101337.56;5076867;28;20433;-69
2023/08/18 05:41:06;;;;;;;5.90;3.20;;;;;;;21.07;100.00;101337.91;5076485;28;20913;-69
2023/08/18 05:43:34;;;;;;;7.63;4.17;;;;;;;21.07;100.00;101339.84;5076741;28;20504;-69
2023/08/18 05:46:01;;;;;;;9.53;4.40;;;;;;;21.11;100.00;101332.47;5076490;28;20492;-69
2023/08/18 05:48:27;;;;;;;6.50;4.23;;;;;;;21.15;100.00;101339.69;5077050;28;20451;-69
2023/08/18 05:50:54;;;;;;;8.63;4.47;;;;;;;21.21;100.00;101345.75;5076397;28;20457;-69
2023/08/18 05:53:20;;;;;;;6.60;3.80;;;;;;;21.23;100.00;101343.44;5076585;28;20873;-69
2023/08/18 05:55:47;;;;;;;11.53;4.97;;;;;;;21.23;100.00;101340.66;5076368;28;20463;-69
2023/08/18 05:58:15;;;;;;;7.30;4.60;;;;;;;21.25;100.00;101341.13;5077001;28;20445;-69
2023/08/18 06:00:41;;;;;;;7.93;4.80;;;;;;;21.28;100.00;101340.41;5076752;28;20528;-69
2023/08/18 06:03:08;;;;;;;10.20;4.27;;;;;;;21.35;100.00;101334.31;5076479;28;20528;-69
2023/08/18 06:05:35;;;;;;;7.60;3.80;;;;;;;21.39;100.00;101340.72;5076695;28;20465;-69
2023/08/18 06:08:02;;;;;;;8.50;4.67;;;;;;;21.44;100.00;101336.88;5076681;28;20592;-69
2023/08/18 06:10:28;;;;;;;12.60;6.83;;;;;;;21.47;100.00;101341.66;5076362;28;20477;-70
2023/08/18 06:12:55;;;;;;;11.80;6.73;;;;;;;21.52;100.00;101338.66;5076681;28;20449;-70
2023/08/18 06:15:24;;;;;;;14.10;5.27;;;;;;;21.58;100.00;101340.78;5076325;28;20505;-70
2023/08/18 06:17:50;;;;;;;16.60;6.10;;;;;;;21.63;100.00;101345.22;5075768;28;20448;-71
2023/08/18 06:20:17;;;;;;;12.10;5.93;;;;;;;21.67;100.00;101344.16;5075976;28;20447;-71
2023/08/18 06:22:43;;;;;;;12.20;5.97;;;;;;;21.75;100.00;101345.13;5076309;28;20457;-70
2023/08/18 06:25:12;;;;;;;12.43;5.47;;;;;;;21.81;100.00;101348.41;5075901;28;21040;-70
2023/08/18 06:27:38;;;;;;;10.40;5.10;;;;;;;21.84;100.00;101348.47;5075798;28;20481;-69
2023/08/18 06:30:06;;;;;;;14.07;5.33;;;;;;;21.90;100.00;101344.28;5076197;28;20528;-68
2023/08/18 06:32:34;;;;;;;10.70;5.37;;;;;;;21.99;100.00;101357.06;5076492;28;20497;-68
2023/08/18 06:35:01;;;;;;;9.77;4.90;;;;;;;22.05;100.00;101361.19;5075788;28;20457;-68
2023/08/18 06:37:28;;;;;;;7.77;4.13;;;;;;;22.12;100.00;101359.38;5075696;28;20465;-68
2023/08/18 06:39:55;;;;;;;9.23;4.97;;;;;;;22.21;100.00;101363.91;5075788;28;20445;-68
2023/08/18 06:42:22;;;;;;;9.60;4.43;;;;;;;22.27;100.00;101357.75;5075296;28;20528;-69
2023/08/18 06:44:49;;;;;;;9.10;5.40;;;;;;;22.34;100.00;101355.13;5075607;28;20532;-69
2023/08/18 06:47:15;;;;;;;8.13;4.50;;;;;;;22.40;100.00;101356.44;5075518;28;20491;-70
2023/08/18 06:49:43;;;;;;;9.50;5.47;;;;;;;22.45;100.00;101354.56;5075289;28;20524;-70
2023/08/18 06:52:10;;;;;;;8.20;4.93;;;;;;;22.53;100.00;101348.00;5075094;28;20996;-70
2023/08/18 06:54:37;;;;;;;9.00;4.80;;;;;;;22.58;100.00;101350.50;5075283;28;20441;-70
2023/08/18 06:57:03;;;;;;;8.40;5.27;;;;;;;22.63;100.00;101347.44;5075335;28;20425;-70
2023/08/18 06:59:30;;;;;;;6.17;4.20;;;;;;;22.69;100.00;101348.72;5075354;28;20532;-70
2023/08/18 07:01:56;;;;;;;10.10;5.83;;;;;;;22.70;100.00;101347.56;5075314;28;20528;-70
2023/08/18 07:04:23;;;;;;;8.70;5.73;;;;;;;22.73;100.00;101340.53;5074965;28;20464;-70
2023/08/18 07:06:51;;;;;;;14.50;5.87;;;;;;;22.81;100.00;101345.81;5075757;28;20489;-71
2023/08/18 07:09:18;;;;;;;9.83;5.53;;;;;;;22.87;100.00;101338.00;5075144;28;20922;-70
2023/08/18 07:11:44;;;;;;;11.03;4.47;;;;;;;22.94;100.00;101345.69;5075080;28;20467;-71
2023/08/18 07:14:11;;;;;;;12.03;5.47;;;;;;;23.00;100.00;101341.44;5074529;28;20818;-69
2023/08/18 07:16:38;;;;;;;10.00;5.73;;;;;;;23.07;100.00;101338.81;5075050;28;20839;-70
2023/08/18 07:19:04;;;;;;;10.93;5.07;;;;;;;23.11;100.00;101342.44;5074939;28;20451;-69
2023/08/18 07:21:31;;;;;;;8.57;5.10;;;;;;;23.19;100.00;101335.06;5073895;28;21008;-70
2023/08/18 07:23:59;;;;;;;14.27;5.57;;;;;;;23.24;100.00;101335.56;5074848;28;20850;-69
2023/08/18 07:26:26;;;;;;;12.47;5.40;;;;;;;23.30;100.00;101338.81;5074882;28;20489;-69
2023/08/18 07:28:53;;;;;;;9.93;5.60;;;;;;;23.37;100.00;101336.16;5074553;28;20438;-70
2023/08/18 07:31:19;;;;;;;10.50;5.70;;;;;;;23.37;100.00;101325.91;5074676;28;20514;-69
2023/08/18 07:33:46;;;;;;;12.63;5.80;;;;;;;23.44;100.00;101339.03;5074682;28;20441;-69
2023/08/18 07:36:13;;;;;;;8.03;4.60;;;;;;;23.48;100.00;101334.38;5074182;28;20461;-69
2023/08/18 07:38:39;;;;;;;7.50;4.50;;;;;;;23.53;100.00;101333.25;5074546;28;20524;-69
2023/08/18 07:41:07;;;;;;;7.70;4.20;;;;;;;23.59;100.00;101334.53;5074772;28;20520;-69
2023/08/18 07:43:34;;;;;;;7.73;4.73;;;;;;;23.65;100.00;101335.84;5074347;28;20433;-69
2023/08/18 07:46:00;;;;;;;14.47;6.33;;;;;;;23.70;100.00;101338.28;5074275;28;20461;-69
2023/08/18 07:48:27;;;;;;;9.63;5.00;;;;;;;23.74;100.00;101338.34;5074291;28;20572;-70
2023/08/18 07:50:54;;;;;;;9.60;5.63;;;;;;;23.77;99.37;101340.34;5074415;28;21005;-69
2023/08/18 07:53:20;;;;;;;9.60;5.00;;;;;;;23.81;99.34;101339.25;5074785;28;20437;-69
2023/08/18 07:55:47;;;;;;;7.67;5.40;;;;;;;23.83;99.01;101331.38;5074164;28;20465;-69
2023/08/18 07:58:15;;;;;;;8.83;5.13;;;;;;;23.89;98.73;101331.84;5074250;28;20433;-69
2023/08/18 08:00:42;;;;;;;10.50;5.00;;;;;;;23.96;99.42;101339.47;5074153;28;20437;-69
2023/08/18 08:03:08;;;;;;;10.10;5.53;;;;;;;23.99;98.47;101333.97;5074034;28;20440;-69
2023/08/18 08:05:35;;;;;;;10.87;5.50;;;;;;;24.03;98.01;101334.00;5074342;28;20566;-69
2023/08/18 08:08:01;;;;;;;14.90;5.60;;;;;;;24.04;97.27;101341.13;5074044;28;20487;-69
2023/08/18 08:10:28;;;;;;;10.67;5.07;;;;;;;24.10;96.92;101326.59;5073908;28;20437;-69
2023/08/18 08:12:55;;;;;;;7.60;4.47;;;;;;;24.10;95.64;101332.16;5074100;28;20444;-69
2023/08/18 08:15:23;;;;;;;10.10;5.53;;;;;;;24.16;95.56;101332.59;5086411;28;20568;-69
2023/08/18 08:17:51;;;;;;;10.13;4.33;;;;;;;24.24;95.17;101336.28;5071295;28;20465;-70
2023/08/18 08:20:17;;;;;;;12.40;5.77;;;;;;;24.33;95.79;101342.31;5090456;28;21063;-70
2023/08/18 08:22:47;;;;;;;9.90;5.50;;;;;;;24.29;95.78;101335.94;5088869;28;20473;-70
2023/08/18 08:25:15;;;;;;;14.27;5.13;;;;;;;24.34;95.85;101328.09;5088457;28;20492;-70
2023/08/18 08:27:42;;;;;;;7.77;4.10;;;;;;;24.39;95.53;101333.34;5087594;28;20480;-70
2023/08/18 08:30:12;;;;;;;7.70;4.37;;;;;;;24.50;95.51;101341.78;5088107;28;20489;-70
2023/08/18 08:32:40;;;;;;;7.10;4.47;;;;;;;24.59;94.38;101324.84;5087011;28;20445;-70
2023/08/18 08:35:07;;;;;;;10.57;5.20;;;;;;;24.66;93.88;101330.50;5086115;28;20457;-70
2023/08/18 08:37:34;;;;;;;8.60;4.53;;;;;;;24.70;92.63;101333.28;5087135;28;20474;-70
2023/08/18 08:40:01;;;;;;;7.50;4.50;;;;;;;24.76;90.66;101340.88;5087147;28;20533;-70
2023/08/18 08:42:27;;;;;;;9.97;5.20;;;;;;;24.81;89.96;101336.97;5086333;28;20461;-70
2023/08/18 08:44:54;;;;;;;8.83;5.20;;;;;;;24.91;90.51;101339.03;5086294;28;20501;-70
2023/08/18 08:47:21;;;;;;;8.40;4.07;;;;;;;24.97;90.98;101340.31;5088383;28;20627;-71
2023/08/18 08:49:59;;;;;;;8.60;4.23;;;;;;;25.04;88.52;101331.25;5086893;28;20528;-70
2023/08/18 08:52:28;;;;;;;9.43;3.93;;;;;;;25.12;87.09;101338.50;5086238;28;20418;-72
2023/08/18 08:54:59;;;;;;;7.27;4.20;;;;;;;25.24;87.64;101343.75;5084474;28;20467;-70
2023/08/18 08:57:26;;;;;;;7.00;3.90;;;;;;;25.33;88.89;101337.91;5083278;28;20457;-70
2023/08/18 08:59:53;;;;;;;5.83;3.70;;;;;;;25.36;85.57;101331.56;5084189;28;20476;-70
2023/08/18 09:02:19;;;;;;;7.97;3.90;;;;;;;25.46;86.05;101336.41;5088072;28;20433;-70
2023/08/18 09:04:46;;;;;;;5.60;3.50;;;;;;;25.48;86.68;101336.81;5085653;28;20521;-70
2023/08/18 09:07:14;;;;;;;6.37;4.33;;;;;;;25.60;85.86;101341.28;5083068;28;20524;-69
2023/08/18 09:09:41;;;;;;;5.53;3.47;;;;;;;25.67;83.42;101344.06;5079734;28;20451;-69
2023/08/18 09:12:08;;;;;;;5.80;3.50;;;;;;;25.71;82.30;101336.56;5078826;28;20528;-69
2023/08/18 09:14:36;;;;;;;7.60;4.10;;;;;;;25.76;82.91;101346.50;5080637;28;20471;-69
2023/08/18 09:17:03;;;;;;;6.90;3.87;;;;;;;25.86;82.70;101332.75;5081210;28;20884;-69
2023/08/18 09:19:30;;;;;;;5.93;3.47;;;;;;;25.95;82.54;101339.94;5081323;28;20536;-69
2023/08/18 09:21:58;;;;;;;11.60;4.23;;;;;;;26.00;82.18;101334.00;5080991;28;20500;-69
2023/08/18 09:24:29;;;;;;;7.50;3.90;;;;;;;26.06;80.94;101332.44;5080325;28;20433;-69
2023/08/18 09:27:05;;;;;;;5.07;2.77;;;;;;;26.11;81.80;101332.06;5080315;28;20465;-69
2023/08/18 09:29:32;;;;;;;7.83;3.73;;;;;;;26.15;77.83;101330.91;5080114;28;20421;-69
2023/08/18 09:31:58;;;;;;;7.30;4.00;;;;;;;26.23;79.99;101322.63;5081152;28;20499;-69
2023/08/18 09:34:25;;;;;;;7.20;4.40;;;;;;;26.33;81.27;101328.22;5080669;28;20441;-69
2023/08/18 09:36:53;;;;;;;6.80;4.33;;;;;;;26.38;80.96;101319.50;5079672;28;20453;-69
2023/08/18 09:39:20;;;;;;;7.27;4.20;;;;;;;26.35;76.22;101325.06;5079423;28;20576;-69
2023/08/18 09:41:50;;;;;;;7.97;3.10;;;;;;;26.48;77.43;101322.75;5081500;28;20950;-69
2023/08/18 09:44:17;;;;;;;5.73;3.37;;;;;;;26.60;77.73;101319.59;5083020;28;20444;-70
2023/08/18 09:46:48;;;;;;;5.77;3.30;;;;;;;26.74;78.60;101322.44;5085284;28;20457;-69
2023/08/18 09:49:17;;;;;;;4.47;2.60;;;;;;;26.81;77.32;101319.66;5084497;28;20469;-69
2023/08/18 09:51:46;;;;;;;5.40;3.20;;;;;;;26.90;76.67;101324.81;5084957;28;20440;-69
2023/08/18 09:54:13;;;;;;;5.67;2.83;;;;;;;26.96;76.62;101319.66;5084280;28;20439;-69
2023/08/18 09:56:42;;;;;;;4.63;3.07;;;;;;;26.97;75.62;101318.50;5083269;28;20471;-69
2023/08/18 09:59:17;;;;;;;8.87;4.03;;;;;;;26.94;72.65;101310.94;5084408;28;20465;-69
2023/08/18 10:01:47;;;;;;;7.70;4.53;;;;;;;27.02;72.63;101307.75;5083667;28;20916;-69
2023/08/18 10:04:13;;;;;;;9.47;3.70;;;;;;;27.09;74.80;101307.81;5084051;28;20479;-69
2023/08/18 10:06:42;;;;;;;4.67;2.90;;;;;;;27.10;72.10;101312.16;5082747;28;20540;-69
2023/08/18 10:09:10;;;;;;;5.93;4.17;;;;;;;27.24;72.72;101314.16;5083974;28;20485;-69
2023/08/18 10:11:37;;;;;;;6.10;3.40;;;;;;;27.35;72.24;101312.16;5084011;28;20445;-69
2023/08/18 10:14:05;;;;;;;5.53;3.63;;;;;;;27.44;73.47;101308.97;5083020;28;20453;-69
2023/08/18 10:16:34;;;;;;;6.67;3.20;;;;;;;27.52;72.81;101307.75;5083888;28;20465;-69
2023/08/18 10:19:02;;;;;;;7.00;3.30;;;;;;;27.64;72.45;101309.34;5082867;28;20437;-69
2023/08/18 10:21:29;;;;;;;6.30;3.97;;;;;;;27.72;70.77;101302.59;5084057;28;20453;-69
2023/08/18 10:23:56;;;;;;;8.80;3.00;;;;;;;27.82;71.13;101301.78;5084154;28;20449;-69
2023/08/18 10:26:24;;;;;;;6.00;3.57;;;;;;;27.90;70.71;101300.56;5083239;28;20522;-69
2023/08/18 10:28:51;;;;;;;6.07;3.33;;;;;;;28.03;71.33;101300.91;5083290;28;20869;-69
2023/08/18 10:31:17;;;;;;;5.80;3.10;;;;;;;28.09;67.87;101293.72;5082354;28;20445;-69
2023/08/18 10:33:49;;;;;;;4.77;3.30;;;;;;;28.21;65.44;101292.47;5081761;28;20437;-69
2023/08/18 10:36:21;;;;;;;5.60;3.40;;;;;;;28.25;63.73;101284.91;5081700;28;20552;-69
2023/08/18 10:38:47;;;;;;;8.50;3.43;;;;;;;28.40;67.03;101283.66;5082376;28;20497;-69
2023/08/18 10:41:14;;;;;;;5.70;2.40;;;;;;;28.55;63.36;101297.50;5081596;28;20922;-69
2023/08/18 10:43:47;;;;;;;6.50;2.83;;;;;;;28.64;64.37;101283.91;5081132;28;20904;-69
2023/08/18 10:46:14;;;;;;;4.87;3.07;;;;;;;28.71;65.15;101295.00;5080471;28;20899;-69
2023/08/18 10:48:41;;;;;;;4.40;2.87;;;;;;;28.84;63.81;101279.38;5082688;28;20564;-69
2023/08/18 10:51:09;;;;;;;7.03;2.70;;;;;;;28.99;63.56;101276.50;5081257;28;20800;-69
2023/08/18 10:53:37;;;;;;;4.57;2.30;;;;;;;29.14;63.36;101275.19;5081790;28;20562;-69
2023/08/18 10:56:04;;;;;;;7.10;3.33;;;;;;;29.28;62.85;101277.84;5079827;28;20465;-69
2023/08/18 10:58:31;;;;;;;3.20;1.73;;;;;;;29.43;58.25;101275.72;5079661;28;20441;-69
2023/08/18 11:00:58;;;;;;;6.57;3.40;;;;;;;29.53;58.20;101260.88;5081179;28;20437;-69
2023/08/18 11:03:26;;;;;;;4.50;2.90;;;;;;;29.64;56.09;101269.16;5080933;28;20500;-69
2023/08/18 11:05:53;;;;;;;4.87;2.77;;;;;;;29.69;57.43;101270.69;5080971;28;20486;-69
2023/08/18 11:08:21;;;;;;;4.97;3.07;;;;;;;29.80;56.75;101269.38;5080370;28;20576;-69
2023/08/18 11:10:48;;;;;;;4.90;2.23;;;;;;;29.92;56.81;101268.00;5080735;28;20518;-69
2023/08/18 11:13:23;;;;;;;4.40;2.63;;;;;;;30.03;55.37;101257.50;5080403;28;20859;-69
2023/08/18 11:15:50;;;;;;;5.07;3.07;;;;;;;30.25;56.20;101263.63;5081632;28;20456;-69
2023/08/18 11:18:17;;;;;;;3.87;2.20;;;;;;;30.44;56.58;101264.19;5082849;28;20438;-69
2023/08/18 11:20:44;;;;;;;4.53;2.60;;;;;;;30.93;56.47;101264.66;5082147;28;20501;-69